createdAt,value
2022-12-28T00:00:12.270Z,4.50
2022-12-28T00:00:50.239Z,3.87
2022-12-28T00:01:24.460Z,3.87
2022-12-28T00:01:59.363Z,3.83
2022-12-28T00:02:31.728Z,3.97
2022-12-28T00:03:04.298Z,3.40
2022-12-28T00:03:39.304Z,4.10
2022-12-28T00:04:15.352Z,3.50
2022-12-28T00:04:47.715Z,4.70
2022-12-28T00:05:22.543Z,3.67
2022-12-28T00:05:54.756Z,4.10
2022-12-28T00:06:27.625Z,3.43
2022-12-28T00:07:02.457Z,4.07
2022-12-28T00:07:34.678Z,4.20
2022-12-28T00:08:07.100Z,3.97
2022-12-28T00:08:42.832Z,4.40
2022-12-28T00:09:17.679Z,4.20
2022-12-28T00:09:49.902Z,4.27
2022-12-28T00:11:08.525Z,4.10
2022-12-28T00:11:26.512Z,4.38
2022-12-28T00:12:00.662Z,5.13
2022-12-28T00:12:35.676Z,4.05
2022-12-28T00:13:07.948Z,3.80
2022-12-28T00:13:40.177Z,3.63
2022-12-28T00:14:15.029Z,4.37
2022-12-28T00:14:47.374Z,3.73
2022-12-28T00:15:19.642Z,3.40
2022-12-28T00:15:54.505Z,4.03
2022-12-28T00:16:28.610Z,4.00
2022-12-28T00:17:03.462Z,3.80
2022-12-28T00:17:35.674Z,3.87
2022-12-28T00:18:07.947Z,3.87
2022-12-28T00:18:42.785Z,4.33
2022-12-28T00:19:16.654Z,3.60
2022-12-28T00:19:51.477Z,4.27
2022-12-28T00:20:23.727Z,3.60
2022-12-28T00:20:59.579Z,3.73
2022-12-28T00:21:35.370Z,4.07
2022-12-28T00:22:07.730Z,3.60
2022-12-28T00:22:39.951Z,4.40
2022-12-28T00:23:14.811Z,4.17
2022-12-28T00:23:52.092Z,4.00
2022-12-28T00:24:28.282Z,3.60
2022-12-28T00:25:00.525Z,3.90
2022-12-28T00:25:35.172Z,3.47
2022-12-28T00:26:10.897Z,3.40
2022-12-28T00:26:43.135Z,3.83
2022-12-28T00:27:15.400Z,3.50
2022-12-28T00:27:50.284Z,3.03
2022-12-28T00:28:22.595Z,3.30
2022-12-28T00:29:00.066Z,3.90
2022-12-28T00:29:38.877Z,3.53
2022-12-28T00:30:12.633Z,3.17
2022-12-28T00:30:44.917Z,3.10
2022-12-28T00:31:20.609Z,3.00
2022-12-28T00:31:52.924Z,3.83
2022-12-28T00:32:30.045Z,3.30
2022-12-28T00:33:04.876Z,3.33
2022-12-28T00:33:37.102Z,3.20
2022-12-28T00:34:09.701Z,3.47
2022-12-28T00:34:44.595Z,4.17
2022-12-28T00:35:17.105Z,3.43
2022-12-28T00:35:53.888Z,4.00
2022-12-28T00:37:08.622Z,3.20
2022-12-28T00:37:21.636Z,4.10
2022-12-28T00:37:56.472Z,3.37
2022-12-28T00:38:31.633Z,4.80
2022-12-28T00:39:07.154Z,3.50
2022-12-28T00:39:42.407Z,3.47
2022-12-28T00:40:20.380Z,4.20
2022-12-28T00:40:56.022Z,4.47
2022-12-28T00:41:30.880Z,3.90
2022-12-28T00:42:03.110Z,3.67
2022-12-28T00:42:38.310Z,3.30
2022-12-28T00:43:10.552Z,3.80
2022-12-28T00:43:42.783Z,3.70
2022-12-28T00:44:17.827Z,3.90
2022-12-28T00:44:50.105Z,4.40
2022-12-28T00:45:22.347Z,4.83
2022-12-28T00:45:54.603Z,3.70
2022-12-28T00:46:29.450Z,4.20
2022-12-28T00:47:01.908Z,7.13
2022-12-28T00:47:34.126Z,3.83
2022-12-28T00:48:09.298Z,4.67
2022-12-28T00:48:43.416Z,4.37
2022-12-28T00:49:15.642Z,3.73
2022-12-28T00:49:50.508Z,3.43
2022-12-28T00:50:22.734Z,4.20
2022-12-28T00:51:01.893Z,3.90
2022-12-28T00:51:36.911Z,3.53
2022-12-28T00:52:12.008Z,3.67
2022-12-28T00:52:46.839Z,3.47
2022-12-28T00:53:19.383Z,4.77
2022-12-28T00:53:51.635Z,3.40
2022-12-28T00:54:29.376Z,6.80
2022-12-28T00:55:01.642Z,3.67
2022-12-28T00:55:34.303Z,3.87
2022-12-28T00:56:10.503Z,3.83
2022-12-28T00:56:43.115Z,3.77
2022-12-28T00:57:17.972Z,6.87
2022-12-28T00:57:50.188Z,3.33
2022-12-28T00:58:22.411Z,3.80
2022-12-28T00:58:59.199Z,3.60
2022-12-28T00:59:31.475Z,3.43
2022-12-28T01:00:09.319Z,4.33
2022-12-28T01:00:41.905Z,3.60
2022-12-28T01:01:16.445Z,3.00
2022-12-28T01:01:51.394Z,3.17
2022-12-28T01:02:23.729Z,3.80
2022-12-28T01:02:56.253Z,3.67
2022-12-28T01:03:32.494Z,3.07
2022-12-28T01:04:05.043Z,3.40
2022-12-28T01:04:39.890Z,6.20
2022-12-28T01:05:12.634Z,3.03
2022-12-28T01:05:47.112Z,3.00
2022-12-28T01:06:23.259Z,2.90
2022-12-28T01:06:55.489Z,3.20
2022-12-28T01:07:28.594Z,3.20
2022-12-28T01:08:03.535Z,3.20
2022-12-28T01:08:36.278Z,2.67
2022-12-28T01:09:08.515Z,3.20
2022-12-28T01:09:45.967Z,3.23
2022-12-28T01:10:18.360Z,3.10
2022-12-28T01:10:50.788Z,3.00
2022-12-28T01:11:26.892Z,3.10
2022-12-28T01:11:59.284Z,3.23
2022-12-28T01:12:38.125Z,2.50
2022-12-28T01:13:10.732Z,2.57
2022-12-28T01:13:43.027Z,2.50
2022-12-28T01:14:18.346Z,2.83
2022-12-28T01:14:52.139Z,2.80
2022-12-28T01:15:24.396Z,2.10
2022-12-28T01:15:59.542Z,2.60
2022-12-28T01:16:33.524Z,3.23
2022-12-28T01:17:08.395Z,2.63
2022-12-28T01:17:40.723Z,2.67
2022-12-28T01:18:12.990Z,2.87
2022-12-28T01:18:48.617Z,3.20
2022-12-28T01:19:22.740Z,3.17
2022-12-28T01:19:55.028Z,2.53
2022-12-28T01:20:30.086Z,2.60
2022-12-28T01:21:09.099Z,2.40
2022-12-28T01:21:41.323Z,2.90
2022-12-28T01:22:17.670Z,2.47
2022-12-28T01:22:51.016Z,2.87
2022-12-28T01:23:23.300Z,3.37
2022-12-28T01:23:56.671Z,2.70
2022-12-28T01:24:32.028Z,2.87
2022-12-28T01:25:09.131Z,3.20
2022-12-28T01:25:42.921Z,2.50
2022-12-28T01:26:18.365Z,2.73
2022-12-28T01:26:50.695Z,2.90
2022-12-28T01:27:23.117Z,2.70
2022-12-28T01:27:57.951Z,2.77
2022-12-28T01:28:30.221Z,3.00
2022-12-28T01:29:02.744Z,3.17
2022-12-28T01:29:39.903Z,2.83
2022-12-28T01:30:14.457Z,3.00
2022-12-28T01:30:46.675Z,2.93
2022-12-28T01:31:22.668Z,3.07
2022-12-28T01:31:56.145Z,3.17
2022-12-28T01:32:28.399Z,2.87
2022-12-28T01:33:03.551Z,2.93
2022-12-28T01:33:36.149Z,2.63
2022-12-28T01:34:10.958Z,2.50
2022-12-28T01:34:43.229Z,2.90
2022-12-28T01:35:17.890Z,3.00
2022-12-28T01:35:52.721Z,3.00
2022-12-28T01:36:26.715Z,3.03
2022-12-28T01:37:01.585Z,2.80
2022-12-28T01:37:33.851Z,3.00
2022-12-28T01:38:06.081Z,2.87
2022-12-28T01:38:38.321Z,2.50
2022-12-28T01:39:13.619Z,2.50
2022-12-28T01:39:45.921Z,2.80
2022-12-28T01:40:20.838Z,2.70
2022-12-28T01:40:55.695Z,3.13
2022-12-28T01:41:29.517Z,3.57
2022-12-28T01:42:02.189Z,2.90
2022-12-28T01:42:37.011Z,3.00
2022-12-28T01:43:12.675Z,2.90
2022-12-28T01:43:46.556Z,3.00
2022-12-28T01:44:46.391Z,3.30
2022-12-28T01:45:21.545Z,2.83
2022-12-28T01:45:54.081Z,3.13
2022-12-28T01:46:35.817Z,2.60
2022-12-28T01:47:12.880Z,3.03
2022-12-28T01:47:49.597Z,2.57
2022-12-28T01:48:23.656Z,3.47
2022-12-28T01:48:59.007Z,3.43
2022-12-28T01:49:33.429Z,2.90
2022-12-28T01:50:12.913Z,2.83
2022-12-28T01:50:45.817Z,2.97
2022-12-28T01:51:18.582Z,2.90
2022-12-28T01:51:56.406Z,2.77
2022-12-28T01:52:32.823Z,2.70
2022-12-28T01:53:08.651Z,2.60
2022-12-28T01:53:40.980Z,3.40
2022-12-28T01:54:13.271Z,3.47
2022-12-28T01:54:50.843Z,2.50
2022-12-28T01:55:27.821Z,2.90
2022-12-28T01:56:02.736Z,2.73
2022-12-28T01:56:35.174Z,3.00
2022-12-28T01:57:07.524Z,2.53
2022-12-28T01:57:43.109Z,3.53
2022-12-28T01:58:20.763Z,2.30
2022-12-28T01:58:53.270Z,4.00
2022-12-28T01:59:28.986Z,5.93
2022-12-28T02:00:06.503Z,2.50
2022-12-28T02:00:56.564Z,3.10
2022-12-28T02:01:31.617Z,3.30
2022-12-28T02:02:04.337Z,2.90
2022-12-28T02:02:37.122Z,2.57
2022-12-28T02:03:14.852Z,2.50
2022-12-28T02:03:47.250Z,3.00
2022-12-28T02:04:19.502Z,2.57
2022-12-28T02:04:51.780Z,3.40
2022-12-28T02:05:29.444Z,2.87
2022-12-28T02:06:05.443Z,3.30
2022-12-28T02:06:42.210Z,2.80
2022-12-28T02:07:19.723Z,3.10
2022-12-28T02:07:56.187Z,2.83
2022-12-28T02:08:34.275Z,3.00
2022-12-28T02:09:09.762Z,3.03
2022-12-28T02:09:43.025Z,3.10
2022-12-28T02:10:41.591Z,3.10
2022-12-28T02:11:14.820Z,2.97
2022-12-28T02:11:48.264Z,3.07
2022-12-28T02:12:23.487Z,3.03
2022-12-28T02:12:56.564Z,3.23
2022-12-28T02:13:28.857Z,3.50
2022-12-28T02:14:06.289Z,3.10
2022-12-28T02:14:39.771Z,3.40
2022-12-28T02:15:17.081Z,3.00
2022-12-28T02:15:56.074Z,3.03
2022-12-28T02:16:28.370Z,2.97
2022-12-28T02:17:00.685Z,3.47
2022-12-28T02:17:33.091Z,3.00
2022-12-28T02:18:08.567Z,3.17
2022-12-28T02:18:43.157Z,2.60
2022-12-28T02:19:19.874Z,2.77
2022-12-28T02:19:54.735Z,2.23
2022-12-28T02:20:31.974Z,2.43
2022-12-28T02:21:26.427Z,2.60
2022-12-28T02:22:12.439Z,2.60
2022-12-28T02:23:11.658Z,2.77
2022-12-28T02:23:58.093Z,2.30
2022-12-28T02:24:49.915Z,2.60
2022-12-28T02:26:26.613Z,3.00
2022-12-28T02:27:05.264Z,2.60
2022-12-28T02:27:42.629Z,2.23
2022-12-28T02:28:28.127Z,2.60
2022-12-28T02:29:20.743Z,2.43
2022-12-28T02:30:13.587Z,2.47
2022-12-28T02:30:52.222Z,2.90
2022-12-28T02:31:29.017Z,2.80
2022-12-28T02:32:08.376Z,2.50
2022-12-28T02:33:01.650Z,2.67
2022-12-28T02:33:37.767Z,3.07
2022-12-28T02:34:15.433Z,3.03
2022-12-28T02:34:51.342Z,2.63
2022-12-28T02:35:32.711Z,2.70
2022-12-28T02:36:11.684Z,2.83
2022-12-28T02:36:51.321Z,3.17
2022-12-28T02:37:28.426Z,3.07
2022-12-28T02:38:03.681Z,2.80
2022-12-28T02:38:39.233Z,2.60
2022-12-28T02:39:20.670Z,2.70
2022-12-28T02:39:56.701Z,3.27
2022-12-28T02:40:35.540Z,2.67
2022-12-28T02:41:10.108Z,2.70
2022-12-28T02:41:44.591Z,2.77
2022-12-28T02:42:20.817Z,2.53
2022-12-28T02:42:54.912Z,3.10
2022-12-28T02:43:27.637Z,3.30
2022-12-28T02:44:03.625Z,2.60
2022-12-28T02:44:54.763Z,2.57
2022-12-28T02:45:50.613Z,2.80
2022-12-28T02:46:38.949Z,2.83
2022-12-28T02:47:34.847Z,2.50
2022-12-28T02:48:23.084Z,2.45
2022-12-28T02:49:10.375Z,2.67
2022-12-28T02:49:57.638Z,2.90
2022-12-28T02:50:44.842Z,2.90
2022-12-28T02:51:33.373Z,2.67
2022-12-28T02:52:11.363Z,2.80
2022-12-28T02:53:05.459Z,2.60
2022-12-28T02:53:47.067Z,3.00
2022-12-28T02:54:45.818Z,2.80
2022-12-28T02:55:44.045Z,3.27
2022-12-28T02:56:25.012Z,2.50
2022-12-28T02:57:03.713Z,2.73
2022-12-28T02:57:52.236Z,2.67
2022-12-28T02:58:40.347Z,2.60
2022-12-28T02:59:30.028Z,2.07
2022-12-28T03:00:10.743Z,2.20
2022-12-28T03:00:53.488Z,2.43
2022-12-28T03:01:43.221Z,2.20
2022-12-28T03:02:28.318Z,1.90
2022-12-28T03:03:13.010Z,2.17
2022-12-28T03:03:57.380Z,1.80
2022-12-28T03:04:38.156Z,2.08
2022-12-28T03:05:19.335Z,2.60
2022-12-28T03:06:14.604Z,1.97
2022-12-28T03:07:11.958Z,2.83
2022-12-28T03:08:04.782Z,2.03
2022-12-28T03:08:41.741Z,2.27
2022-12-28T03:09:17.589Z,3.92
2022-12-28T03:09:56.710Z,1.85
2022-12-28T03:10:33.319Z,2.10
2022-12-28T03:11:08.626Z,2.03
2022-12-28T03:11:50.537Z,1.63
2022-12-28T03:12:28.102Z,2.37
2022-12-28T03:13:03.365Z,2.23
2022-12-28T03:13:47.733Z,2.00
2022-12-28T03:14:26.851Z,1.80
2022-12-28T03:15:04.872Z,2.20
2022-12-28T03:15:43.566Z,1.53
2022-12-28T03:16:20.171Z,1.80
2022-12-28T03:17:09.962Z,1.80
2022-12-28T03:17:58.826Z,1.90
2022-12-28T03:18:47.164Z,2.10
2022-12-28T03:19:34.261Z,1.70
2022-12-28T03:20:24.962Z,2.00
2022-12-28T03:21:15.263Z,1.80
2022-12-28T03:22:03.758Z,1.60
2022-12-28T03:22:53.816Z,5.07
2022-12-28T03:23:42.113Z,1.73
2022-12-28T03:24:30.887Z,1.60
2022-12-28T03:25:22.699Z,2.00
2022-12-28T03:26:11.698Z,1.43
2022-12-28T03:27:05.202Z,1.73
2022-12-28T03:27:58.622Z,1.57
2022-12-28T03:28:48.630Z,1.98
2022-12-28T03:29:38.109Z,1.87
2022-12-28T03:30:28.474Z,1.60
2022-12-28T03:31:09.723Z,2.40
2022-12-28T03:31:49.142Z,1.93
2022-12-28T03:32:21.613Z,1.60
2022-12-28T03:32:56.542Z,1.83
2022-12-28T03:33:29.159Z,2.03
2022-12-28T03:34:07.063Z,1.37
2022-12-28T03:35:02.343Z,1.90
2022-12-28T03:35:42.836Z,1.73
2022-12-28T03:36:18.796Z,1.60
2022-12-28T03:37:00.006Z,1.70
2022-12-28T03:37:36.642Z,1.40
2022-12-28T03:38:27.589Z,1.63
2022-12-28T03:39:06.744Z,1.80
2022-12-28T03:39:43.064Z,1.45
2022-12-28T03:40:27.197Z,1.73
2022-12-28T03:41:05.731Z,1.80
2022-12-28T03:41:41.501Z,1.60
2022-12-28T03:42:49.507Z,1.43
2022-12-28T03:43:43.849Z,1.40
2022-12-28T03:44:25.981Z,2.37
2022-12-28T03:45:03.319Z,1.77
2022-12-28T03:45:46.687Z,1.40
2022-12-28T03:46:29.660Z,2.30
2022-12-28T03:47:09.670Z,1.97
2022-12-28T03:47:43.678Z,1.93
2022-12-28T03:48:16.545Z,1.77
2022-12-28T03:48:52.306Z,1.67
2022-12-28T03:49:24.966Z,1.50
2022-12-28T03:49:58.712Z,1.63
2022-12-28T03:50:32.125Z,1.40
2022-12-28T03:51:07.283Z,1.37
2022-12-28T03:51:41.169Z,1.40
2022-12-28T03:52:18.702Z,1.63
2022-12-28T03:52:54.907Z,1.60
2022-12-28T03:53:36.484Z,2.03
2022-12-28T03:54:11.405Z,1.57
2022-12-28T03:54:43.709Z,1.70
2022-12-28T03:55:19.358Z,1.60
2022-12-28T03:55:54.198Z,1.50
2022-12-28T03:56:28.213Z,1.40
2022-12-28T03:57:05.293Z,1.30
2022-12-28T03:57:42.982Z,1.33
2022-12-28T03:58:21.868Z,1.70
2022-12-28T03:58:58.234Z,1.97
2022-12-28T03:59:38.954Z,1.70
2022-12-28T04:00:12.995Z,1.50
2022-12-28T04:00:57.858Z,2.30
2022-12-28T04:01:33.175Z,1.70
2022-12-28T04:02:05.608Z,2.17
2022-12-28T04:02:41.942Z,1.60
2022-12-28T04:03:15.365Z,1.40
2022-12-28T04:03:50.950Z,1.50
2022-12-28T04:04:23.327Z,2.03
2022-12-28T04:04:56.431Z,1.80
2022-12-28T04:05:31.711Z,1.20
2022-12-28T04:06:04.533Z,1.20
2022-12-28T04:06:36.925Z,1.40
2022-12-28T04:07:12.199Z,1.60
2022-12-28T04:07:44.568Z,1.47
2022-12-28T04:08:18.421Z,1.70
2022-12-28T04:08:53.306Z,1.57
2022-12-28T04:09:27.056Z,1.77
2022-12-28T04:10:00.044Z,1.37
2022-12-28T04:10:32.362Z,1.30
2022-12-28T04:11:07.552Z,1.60
2022-12-28T04:11:39.869Z,1.40
2022-12-28T04:12:14.850Z,1.33
2022-12-28T04:13:21.700Z,1.30
2022-12-28T04:14:03.160Z,1.40
2022-12-28T04:14:42.459Z,1.20
2022-12-28T04:15:17.392Z,1.47
2022-12-28T04:15:57.410Z,1.33
2022-12-28T04:16:29.691Z,1.60
2022-12-28T04:17:07.406Z,1.70
2022-12-28T04:17:39.704Z,1.43
2022-12-28T04:18:11.964Z,1.47
2022-12-28T04:18:47.932Z,1.53
2022-12-28T04:19:20.869Z,1.47
2022-12-28T04:19:53.871Z,1.50
2022-12-28T04:20:28.735Z,1.23
2022-12-28T04:21:01.469Z,1.20
2022-12-28T04:21:34.200Z,1.33
2022-12-28T04:22:09.245Z,1.43
2022-12-28T04:22:42.103Z,1.40
2022-12-28T04:23:14.326Z,1.60
2022-12-28T04:23:49.268Z,1.40
2022-12-28T04:24:28.239Z,1.30
2022-12-28T04:25:01.086Z,1.67
2022-12-28T04:25:35.947Z,1.20
2022-12-28T04:26:11.525Z,1.23
2022-12-28T04:26:45.004Z,1.70
2022-12-28T04:27:24.224Z,1.33
2022-12-28T04:27:59.349Z,1.53
2022-12-28T04:28:52.548Z,1.20
2022-12-28T04:29:24.797Z,1.33
2022-12-28T04:30:10.347Z,1.30
2022-12-28T04:30:42.635Z,1.40
2022-12-28T04:31:15.090Z,1.30
2022-12-28T04:31:57.203Z,1.40
2022-12-28T04:32:32.128Z,1.10
2022-12-28T04:33:04.400Z,1.87
2022-12-28T04:33:40.496Z,1.57
2022-12-28T04:34:12.788Z,1.87
2022-12-28T04:34:50.937Z,1.43
2022-12-28T04:35:26.837Z,1.47
2022-12-28T04:36:08.503Z,1.27
2022-12-28T04:36:42.006Z,1.33
2022-12-28T04:37:20.011Z,1.33
2022-12-28T04:37:54.866Z,1.25
2022-12-28T04:38:27.083Z,1.30
2022-12-28T04:38:59.420Z,1.33
2022-12-28T04:39:55.767Z,1.40
2022-12-28T04:40:26.458Z,1.00
2022-12-28T04:40:58.741Z,1.48
2022-12-28T04:41:33.583Z,1.33
2022-12-28T04:42:05.951Z,1.00
2022-12-28T04:42:38.168Z,1.20
2022-12-28T04:43:13.204Z,1.40
2022-12-28T04:43:45.500Z,1.10
2022-12-28T04:44:17.720Z,1.30
2022-12-28T04:44:52.546Z,1.30
2022-12-28T04:45:24.779Z,1.30
2022-12-28T04:45:57.721Z,1.67
2022-12-28T04:46:32.663Z,1.30
2022-12-28T04:47:05.152Z,1.30
2022-12-28T04:47:39.979Z,1.03
2022-12-28T04:48:14.795Z,1.20
2022-12-28T04:48:47.014Z,1.27
2022-12-28T04:49:19.234Z,1.37
2022-12-28T04:49:54.038Z,1.20
2022-12-28T04:50:26.875Z,1.30
2022-12-28T04:50:59.401Z,1.17
2022-12-28T04:51:35.392Z,1.23
2022-12-28T04:52:08.056Z,1.17
2022-12-28T04:52:40.334Z,1.10
2022-12-28T04:53:15.269Z,1.50
2022-12-28T04:53:47.973Z,1.20
2022-12-28T04:54:22.940Z,1.67
2022-12-28T04:54:55.186Z,1.20
2022-12-28T04:55:32.597Z,1.13
2022-12-28T04:56:09.265Z,1.40
2022-12-28T04:56:41.545Z,1.50
2022-12-28T04:57:16.399Z,1.30
2022-12-28T04:57:48.634Z,1.37
2022-12-28T04:58:20.857Z,1.60
2022-12-28T04:58:57.527Z,1.00
2022-12-28T04:59:29.747Z,1.20
2022-12-28T05:00:02.044Z,1.23
2022-12-28T05:00:36.946Z,1.00
2022-12-28T05:01:11.047Z,1.60
2022-12-28T05:01:43.604Z,1.10
2022-12-28T05:02:18.577Z,1.20
2022-12-28T05:02:53.483Z,1.20
2022-12-28T05:03:25.716Z,1.20
2022-12-28T05:04:00.637Z,1.53
2022-12-28T05:04:32.858Z,1.20
2022-12-28T05:05:05.841Z,1.33
2022-12-28T05:05:40.751Z,1.30
2022-12-28T05:06:14.429Z,1.27
2022-12-28T05:06:46.765Z,1.10
2022-12-28T05:07:21.769Z,1.60
2022-12-28T05:07:54.062Z,1.00
2022-12-28T05:08:26.416Z,0.90
2022-12-28T05:09:01.243Z,1.07
2022-12-28T05:09:33.470Z,0.90
2022-12-28T05:10:06.425Z,1.00
2022-12-28T05:10:41.268Z,1.13
2022-12-28T05:11:14.683Z,0.93
2022-12-28T05:11:46.929Z,1.00
2022-12-28T05:12:21.776Z,1.00
2022-12-28T05:12:54.658Z,1.30
2022-12-28T05:13:26.882Z,1.13
2022-12-28T05:14:01.885Z,1.10
2022-12-28T05:14:37.123Z,1.20
2022-12-28T05:15:10.675Z,1.20
2022-12-28T05:15:42.912Z,1.30
2022-12-28T05:16:19.212Z,1.30
2022-12-28T05:16:51.614Z,1.10
2022-12-28T05:17:23.850Z,1.13
2022-12-28T05:18:01.267Z,1.20
2022-12-28T05:18:33.594Z,1.27
2022-12-28T05:19:08.450Z,0.90
2022-12-28T05:19:40.898Z,0.90
2022-12-28T05:20:13.126Z,0.90
2022-12-28T05:20:47.966Z,0.80
2022-12-28T05:21:22.512Z,1.07
2022-12-28T05:21:54.748Z,1.00
2022-12-28T05:22:29.626Z,1.10
2022-12-28T05:23:01.850Z,1.40
2022-12-28T05:23:35.412Z,1.17
2022-12-28T05:24:11.012Z,1.17
2022-12-28T05:24:43.226Z,0.90
2022-12-28T05:25:15.549Z,1.10
2022-12-28T05:25:55.796Z,0.90
2022-12-28T05:26:29.258Z,1.00
2022-12-28T05:27:04.142Z,0.90
2022-12-28T05:27:36.395Z,0.87
2022-12-28T05:28:08.623Z,1.00
2022-12-28T05:28:44.034Z,1.20
2022-12-28T05:29:16.263Z,1.30
2022-12-28T05:29:48.514Z,1.00
2022-12-28T05:30:23.377Z,1.10
2022-12-28T05:30:59.743Z,1.07
2022-12-28T05:31:32.040Z,1.17
2022-12-28T05:32:07.522Z,1.50
2022-12-28T05:32:39.732Z,1.13
2022-12-28T05:33:14.580Z,1.00
2022-12-28T05:33:50.327Z,1.40
2022-12-28T05:34:22.576Z,1.00
2022-12-28T05:34:57.402Z,1.00
2022-12-28T05:35:29.641Z,1.20
2022-12-28T05:36:03.779Z,1.10
2022-12-28T05:36:39.876Z,1.00
2022-12-28T05:37:15.737Z,0.93
2022-12-28T05:37:52.941Z,1.00
2022-12-28T05:38:28.010Z,1.10
2022-12-28T05:39:00.314Z,1.33
2022-12-28T05:39:35.124Z,1.17
2022-12-28T05:40:08.706Z,1.10
2022-12-28T05:40:40.922Z,1.10
2022-12-28T05:41:17.140Z,1.23
2022-12-28T05:41:49.368Z,1.00
2022-12-28T05:42:21.639Z,1.10
2022-12-28T05:42:56.455Z,0.80
2022-12-28T05:43:28.674Z,1.00
2022-12-28T05:44:00.900Z,0.90
2022-12-28T05:44:35.779Z,1.13
2022-12-28T05:45:08.774Z,2.20
2022-12-28T05:45:41.030Z,1.00
2022-12-28T05:46:19.377Z,0.80
2022-12-28T05:46:51.772Z,0.90
2022-12-28T05:47:24.066Z,0.93
2022-12-28T05:47:58.877Z,1.03
2022-12-28T05:48:35.542Z,0.80
2022-12-28T05:49:08.783Z,1.00
2022-12-28T05:49:43.640Z,1.40
2022-12-28T05:50:16.013Z,0.90
2022-12-28T05:50:48.227Z,1.50
2022-12-28T05:51:24.797Z,1.00
2022-12-28T05:51:57.030Z,0.90
2022-12-28T05:52:30.332Z,1.30
2022-12-28T05:53:05.197Z,1.10
2022-12-28T05:53:37.922Z,1.00
2022-12-28T05:54:12.799Z,0.97
2022-12-28T05:54:45.839Z,1.17
2022-12-28T05:55:18.297Z,1.00
2022-12-28T05:55:53.106Z,0.97
2022-12-28T05:56:27.039Z,0.73
2022-12-28T05:57:01.875Z,1.20
2022-12-28T05:57:34.140Z,1.10
2022-12-28T05:58:06.363Z,0.90
2022-12-28T05:58:41.222Z,1.00
2022-12-28T05:59:13.737Z,1.00
2022-12-28T05:59:45.965Z,1.03
2022-12-28T06:00:21.213Z,0.90
2022-12-28T06:00:53.443Z,1.30
2022-12-28T06:01:27.619Z,0.80
2022-12-28T06:02:02.598Z,0.90
2022-12-28T06:02:35.149Z,0.93
2022-12-28T06:03:07.546Z,1.20
2022-12-28T06:03:45.532Z,0.90
2022-12-28T06:04:19.400Z,1.10
2022-12-28T06:04:51.668Z,1.13
2022-12-28T06:05:27.311Z,0.90
2022-12-28T06:06:04.213Z,0.90
2022-12-28T06:06:36.482Z,0.90
2022-12-28T06:07:11.302Z,0.80
2022-12-28T06:07:43.551Z,0.80
2022-12-28T06:08:20.962Z,0.90
2022-12-28T06:08:57.697Z,0.70
2022-12-28T06:09:29.964Z,0.80
2022-12-28T06:10:02.194Z,0.80
2022-12-28T06:10:37.027Z,0.90
2022-12-28T06:11:10.611Z,1.00
2022-12-28T06:11:45.981Z,1.00
2022-12-28T06:12:18.272Z,0.90
2022-12-28T06:12:50.626Z,0.77
2022-12-28T06:13:22.861Z,0.90
2022-12-28T06:13:58.195Z,1.00
2022-12-28T06:14:30.407Z,0.90
2022-12-28T06:15:02.637Z,1.20
2022-12-28T06:15:37.454Z,0.80
2022-12-28T06:16:12.256Z,1.20
2022-12-28T06:16:47.151Z,0.93
2022-12-28T06:17:19.388Z,1.00
2022-12-28T06:17:53.130Z,1.10
2022-12-28T06:18:29.269Z,0.93
2022-12-28T06:19:07.430Z,1.07
2022-12-28T06:19:42.265Z,0.93
2022-12-28T06:20:14.634Z,1.37
2022-12-28T06:20:46.864Z,1.00
2022-12-28T06:21:23.504Z,1.10
2022-12-28T06:21:55.735Z,0.90
2022-12-28T06:22:28.582Z,1.00
2022-12-28T06:23:03.419Z,1.10
2022-12-28T06:23:36.226Z,0.90
2022-12-28T06:24:13.908Z,0.83
2022-12-28T06:24:46.144Z,1.37
2022-12-28T06:25:18.367Z,1.00
2022-12-28T06:25:53.211Z,1.30
2022-12-28T06:26:26.060Z,1.13
2022-12-28T06:26:58.302Z,0.80
2022-12-28T06:27:33.123Z,1.13
2022-12-28T06:28:05.396Z,0.80
2022-12-28T06:28:38.004Z,0.90
2022-12-28T06:29:13.367Z,1.17
2022-12-28T06:29:45.622Z,1.30
2022-12-28T06:30:18.054Z,1.10
2022-12-28T06:30:53.118Z,0.93
2022-12-28T06:31:26.796Z,1.17
2022-12-28T06:32:01.719Z,0.80
2022-12-28T06:32:33.997Z,0.90
2022-12-28T06:33:06.236Z,1.03
2022-12-28T06:33:41.187Z,0.80
2022-12-28T06:34:16.041Z,1.00
2022-12-28T06:34:51.125Z,0.93
2022-12-28T06:35:23.455Z,0.97
2022-12-28T06:35:55.714Z,0.90
2022-12-28T06:36:32.901Z,1.17
2022-12-28T06:37:05.163Z,0.83
2022-12-28T06:37:37.383Z,1.10
2022-12-28T06:38:12.286Z,1.00
2022-12-28T06:38:44.766Z,1.20
2022-12-28T06:39:19.577Z,1.10
2022-12-28T06:39:51.791Z,0.80
2022-12-28T06:40:39.457Z,0.90
2022-12-28T06:41:19.841Z,1.00
2022-12-28T06:41:52.114Z,0.80
2022-12-28T06:42:26.937Z,1.10
2022-12-28T06:42:59.166Z,1.00
2022-12-28T06:43:32.396Z,0.90
2022-12-28T06:44:09.236Z,0.90
2022-12-28T06:44:44.713Z,1.03
2022-12-28T06:45:17.327Z,1.00
2022-12-28T06:45:59.199Z,0.90
2022-12-28T06:46:31.575Z,0.90
2022-12-28T06:47:06.408Z,0.80
2022-12-28T06:47:40.182Z,1.07
2022-12-28T06:48:12.402Z,1.20
2022-12-28T06:48:44.863Z,0.80
2022-12-28T06:49:22.271Z,1.00
2022-12-28T06:49:54.849Z,0.95
2022-12-28T06:50:27.071Z,0.80
2022-12-28T06:51:00.635Z,1.00
2022-12-28T06:51:40.469Z,0.90
2022-12-28T06:52:12.862Z,1.60
2022-12-28T06:52:45.073Z,0.70
2022-12-28T06:53:19.919Z,0.87
2022-12-28T06:53:53.510Z,0.80
2022-12-28T06:54:28.359Z,0.97
2022-12-28T06:55:00.580Z,0.80
2022-12-28T06:55:32.816Z,0.93
2022-12-28T06:56:09.710Z,0.70
2022-12-28T06:56:41.992Z,0.77
2022-12-28T06:57:16.818Z,0.80
2022-12-28T06:57:49.038Z,0.87
2022-12-28T06:58:21.280Z,0.90
2022-12-28T06:59:00.349Z,0.80
2022-12-28T06:59:37.559Z,1.07
2022-12-28T07:00:11.447Z,0.83
2022-12-28T07:00:43.764Z,0.60
2022-12-28T07:01:20.941Z,0.80
2022-12-28T07:01:53.441Z,1.00
2022-12-28T07:02:25.933Z,0.70
2022-12-28T07:03:01.133Z,0.87
2022-12-28T07:03:33.451Z,0.80
2022-12-28T07:04:09.585Z,0.90
2022-12-28T07:04:44.433Z,1.00
2022-12-28T07:05:16.912Z,0.90
2022-12-28T07:05:52.044Z,0.60
2022-12-28T07:06:26.114Z,0.80
2022-12-28T07:06:58.499Z,0.80
2022-12-28T07:07:33.386Z,0.70
2022-12-28T07:08:12.267Z,1.00
2022-12-28T07:08:45.345Z,0.70
2022-12-28T07:09:20.154Z,0.70
2022-12-28T07:09:52.399Z,0.97
2022-12-28T07:10:24.659Z,0.80
2022-12-28T07:11:04.966Z,0.80
2022-12-28T07:11:37.329Z,0.70
2022-12-28T07:12:09.551Z,0.83
2022-12-28T07:12:44.427Z,0.80
2022-12-28T07:13:17.246Z,0.70
2022-12-28T07:13:49.722Z,0.90
2022-12-28T07:14:24.957Z,0.67
2022-12-28T07:14:57.227Z,0.90
2022-12-28T07:15:29.451Z,1.17
2022-12-28T07:16:05.481Z,0.90
2022-12-28T07:17:11.523Z,0.80
2022-12-28T07:17:43.747Z,0.80
2022-12-28T07:18:15.963Z,0.90
2022-12-28T07:18:50.928Z,0.90
2022-12-28T07:19:23.150Z,0.73
2022-12-28T07:19:58.001Z,1.10
2022-12-28T07:20:37.105Z,0.70
2022-12-28T07:21:14.155Z,0.80
2022-12-28T07:21:48.971Z,0.77
2022-12-28T07:22:21.191Z,0.70
2022-12-28T07:22:54.251Z,0.70
2022-12-28T07:23:30.183Z,0.63
2022-12-28T07:24:05.851Z,0.73
2022-12-28T07:24:38.131Z,0.80
2022-12-28T07:25:10.512Z,0.80
2022-12-28T07:25:45.323Z,0.97
2022-12-28T07:26:20.632Z,0.80
2022-12-28T07:26:55.555Z,0.90
2022-12-28T07:27:27.783Z,0.93
2022-12-28T07:28:00.008Z,1.00
2022-12-28T07:28:34.862Z,0.90
2022-12-28T07:29:08.848Z,1.10
2022-12-28T07:29:42.233Z,0.80
2022-12-28T07:30:17.518Z,0.97
2022-12-28T07:30:49.935Z,1.00
2022-12-28T07:31:26.388Z,0.83
2022-12-28T07:31:58.691Z,1.10
2022-12-28T07:32:30.934Z,1.00
2022-12-28T07:33:05.780Z,0.80
2022-12-28T07:33:38.917Z,0.70
2022-12-28T07:34:11.154Z,0.90
2022-12-28T07:34:45.997Z,0.70
2022-12-28T07:35:20.879Z,0.90
2022-12-28T07:35:53.094Z,0.80
2022-12-28T07:36:28.767Z,5.03
2022-12-28T07:37:01.007Z,1.00
2022-12-28T07:37:33.412Z,0.80
2022-12-28T07:38:08.273Z,0.83
2022-12-28T07:38:41.294Z,0.83
2022-12-28T07:39:16.134Z,0.80
2022-12-28T07:39:48.350Z,0.73
2022-12-28T07:40:20.558Z,0.90
2022-12-28T07:40:55.381Z,0.80
2022-12-28T07:41:29.120Z,0.70
2022-12-28T07:42:08.451Z,0.97
2022-12-28T07:42:40.679Z,0.60
2022-12-28T07:43:12.954Z,0.73
2022-12-28T07:43:48.137Z,0.90
2022-12-28T07:44:20.366Z,0.80
2022-12-28T07:44:55.176Z,1.00
2022-12-28T07:45:27.405Z,0.60
2022-12-28T07:46:03.078Z,0.80
2022-12-28T07:46:40.909Z,0.97
2022-12-28T07:47:13.239Z,0.90
2022-12-28T07:47:45.718Z,0.90
2022-12-28T07:48:20.547Z,0.80
2022-12-28T07:48:53.692Z,1.13
2022-12-28T07:49:28.524Z,0.70
2022-12-28T07:50:00.750Z,0.70
2022-12-28T07:50:38.448Z,0.67
2022-12-28T07:51:13.058Z,0.93
2022-12-28T07:51:47.870Z,0.80
2022-12-28T07:52:20.165Z,1.00
2022-12-28T07:52:52.399Z,0.80
2022-12-28T07:53:27.245Z,0.90
2022-12-28T07:54:00.311Z,0.80
2022-12-28T07:54:35.151Z,1.00
2022-12-28T07:55:08.175Z,1.20
2022-12-28T07:55:40.677Z,1.00
2022-12-28T07:56:16.283Z,1.17
2022-12-28T07:56:48.495Z,0.90
2022-12-28T07:57:20.730Z,1.30
2022-12-28T07:57:55.583Z,1.03
2022-12-28T07:58:27.825Z,2.20
2022-12-28T07:59:04.798Z,1.47